Time;durP1;ratioP1;P1;durP2;ratioP2;P2;SDS_P1;SDS_P2;PMS_P1;PMS_P2;Temp;Humidity;BMP_temperature;BMP_pressure;BME280_temperature;BME280_humidity;BME280_pressure;Samples;Min_cycle;Max_cycle;Signal;HPM_P1;HPM_P2
2023/10/14 00:01:12;;;;;;;0.43;0.20;;;13.30;99.90;;;;;;4967979;28;20487;-82
2023/10/14 00:03:43;;;;;;;1.92;0.57;;;13.20;99.90;;;;;;4966572;28;20058;-81
2023/10/14 00:06:11;;;;;;;1.58;0.40;;;13.10;99.90;;;;;;4968152;28;20047;-82
2023/10/14 00:08:47;;;;;;;0.40;0.28;;;13.10;99.90;;;;;;4968450;28;20043;-81
2023/10/14 00:11:15;;;;;;;2.58;0.32;;;13.00;99.90;;;;;;4968060;28;20034;-82
2023/10/14 00:13:43;;;;;;;0.10;0.10;;;13.00;99.90;;;;;;4968375;28;20108;-82
2023/10/14 00:16:26;;;;;;;1.48;0.57;;;12.90;99.90;;;;;;4968274;28;20085;-82
2023/10/14 00:18:52;;;;;;;2.90;0.38;;;12.90;99.90;;;;;;4968772;28;20058;-82
2023/10/14 00:21:18;;;;;;;3.95;0.40;;;12.80;99.90;;;;;;4972369;28;20046;-82
2023/10/14 00:23:44;;;;;;;0.65;0.30;;;12.90;99.90;;;;;;4971556;28;20047;-82
2023/10/14 00:26:14;;;;;;;0.47;0.13;;;12.80;99.90;;;;;;4971117;28;20110;-83
2023/10/14 00:28:42;;;;;;;0.85;0.45;;;12.80;99.90;;;;;;4970326;28;20138;-82
2023/10/14 00:31:11;;;;;;;2.10;0.30;;;12.80;99.90;;;;;;4970094;28;20469;-82
2023/10/14 00:33:39;;;;;;;8.52;0.90;;;12.80;99.90;;;;;;4971000;28;20118;-83
2023/10/14 00:36:10;;;;;;;0.38;0.20;;;12.70;99.90;;;;;;4970174;28;20039;-83
2023/10/14 00:38:38;;;;;;;3.83;0.30;;;12.70;99.90;;;;;;4970549;28;20122;-83
2023/10/14 00:41:03;;;;;;;2.85;0.50;;;12.70;99.90;;;;;;4970172;28;20039;-83
2023/10/14 00:43:29;;;;;;;5.43;0.77;;;12.70;99.90;;;;;;4969907;28;20066;-83
2023/10/14 00:45:55;;;;;;;2.38;0.40;;;12.60;99.90;;;;;;4986558;28;20054;-82
2023/10/14 00:48:27;;;;;;;2.20;0.55;;;12.70;99.90;;;;;;4990894;28;20049;-83
2023/10/14 00:50:59;;;;;;;0.28;0.20;;;12.60;99.90;;;;;;4990550;28;20095;-82
2023/10/14 00:53:28;;;;;;;2.63;0.80;;;12.60;99.90;;;;;;5057302;28;20052;-82
2023/10/14 00:55:54;;;;;;;3.30;0.47;;;12.50;99.90;;;;;;5058007;28;20050;-82
2023/10/14 00:58:27;;;;;;;8.50;0.90;;;12.40;99.90;;;;;;5057396;28;20122;-82
2023/10/14 01:00:59;;;;;;;4.85;0.50;;;12.40;99.90;;;;;;5057869;28;20058;-83
2023/10/14 01:03:32;;;;;;;8.32;1.02;;;12.30;99.90;;;;;;4990374;28;20042;-82
2023/10/14 01:06:06;;;;;;;4.22;0.65;;;12.20;99.90;;;;;;5056102;28;20042;-82
2023/10/14 01:08:37;;;;;;;2.22;0.82;;;12.10;99.90;;;;;;5057516;28;20057;-83
2023/10/14 01:11:03;;;;;;;1.92;0.50;;;12.00;99.90;;;;;;5041442;28;20050;-83
2023/10/14 01:13:29;;;;;;;6.68;0.77;;;11.90;99.90;;;;;;4989857;28;20038;-83
2023/10/14 01:16:03;;;;;;;1.42;0.50;;;11.80;99.90;;;;;;5057998;28;20115;-83
2023/10/14 01:18:31;;;;;;;3.75;0.60;;;11.80;99.90;;;;;;5040920;28;20046;-83
2023/10/14 01:20:57;;;;;;;2.28;0.68;;;11.60;99.90;;;;;;5057020;28;20042;-83
2023/10/14 01:23:26;;;;;;;3.03;0.77;;;11.50;99.90;;;;;;5051253;28;20035;-83
2023/10/14 01:25:52;;;;;;;2.72;0.38;;;11.40;99.90;;;;;;5057903;28;20757;-83
2023/10/14 01:28:22;;;;;;;0.88;0.45;;;11.30;99.90;;;;;;5039778;28;20133;-83
2023/10/14 01:31:06;;;;;;;2.10;0.30;;;11.20;99.90;;;;;;5055735;28;20078;-83
2023/10/14 01:33:35;;;;;;;1.48;0.35;;;11.10;99.90;;;;;;5057336;28;20042;-83
2023/10/14 01:36:02;;;;;;;1.27;0.53;;;11.00;99.90;;;;;;5056781;28;20401;-83
2023/10/14 01:38:30;;;;;;;0.80;0.45;;;10.90;99.90;;;;;;5057769;28;20046;-83
2023/10/14 01:40:56;;;;;;;1.48;0.65;;;10.90;99.90;;;;;;5057021;28;20100;-83
2023/10/14 01:43:24;;;;;;;0.95;0.50;;;10.80;99.90;;;;;;4990127;28;20038;-83
2023/10/14 01:45:59;;;;;;;0.60;0.30;;;10.80;99.90;;;;;;4988445;28;20160;-83
2023/10/14 01:48:36;;;;;;;5.13;0.75;;;10.80;99.90;;;;;;5055839;28;20069;-83
2023/10/14 01:51:04;;;;;;;0.95;0.40;;;10.70;99.90;;;;;;4989818;28;20448;-83
2023/10/14 01:53:35;;;;;;;5.82;1.05;;;10.70;99.90;;;;;;4990106;28;20049;-83
2023/10/14 01:56:02;;;;;;;1.40;0.50;;;10.60;99.90;;;;;;4989279;28;20118;-83
2023/10/14 01:58:30;;;;;;;4.88;0.40;;;10.50;99.90;;;;;;4989617;28;20563;-83
2023/10/14 02:03:35;;;;;;;3.67;0.38;;;10.50;99.90;;;;;;5056682;28;20054;-83
2023/10/14 02:06:11;;;;;;;3.03;0.40;;;10.40;99.90;;;;;;5056872;28;20726;-83
2023/10/14 02:08:37;;;;;;;0.57;0.28;;;10.30;99.90;;;;;;5055639;28;20127;-83
2023/10/14 02:11:04;;;;;;;1.55;0.40;;;10.30;99.90;;;;;;5055896;28;20046;-83
2023/10/14 02:13:29;;;;;;;1.85;0.60;;;10.20;99.90;;;;;;5056968;28;20081;-83
2023/10/14 02:15:59;;;;;;;2.30;0.50;;;10.20;99.90;;;;;;5056010;28;20046;-83
2023/10/14 02:18:25;;;;;;;3.97;0.60;;;10.20;99.90;;;;;;5039723;28;20390;-83
2023/10/14 02:21:05;;;;;;;0.65;0.25;;;10.20;99.90;;;;;;5056918;28;20111;-83
2023/10/14 02:23:43;;;;;;;;;;;10.20;99.90;;;;;;4988621;28;20030;-83
2023/10/14 02:26:30;;;;;;;0.43;0.17;;;10.20;99.90;;;;;;4989011;28;19925;-83
2023/10/14 02:28:57;;;;;;;0.50;0.22;;;10.10;99.90;;;;;;5056091;28;20100;-83
2023/10/14 02:34:04;;;;;;;1.77;0.50;;;10.10;99.90;;;;;;5056308;28;20046;-83
2023/10/14 02:36:34;;;;;;;4.40;0.25;;;10.10;99.90;;;;;;5056079;28;20065;-83
2023/10/14 02:39:00;;;;;;;2.83;0.43;;;10.10;99.90;;;;;;5055803;28;20030;-83
2023/10/14 02:41:32;;;;;;;0.73;0.32;;;10.20;99.90;;;;;;5055539;28;20394;-83
2023/10/14 02:46:32;;;;;;;0.75;0.30;;;10.10;99.90;;;;;;5056613;28;20058;-83
2023/10/14 02:49:02;;;;;;;3.58;0.35;;;10.10;99.90;;;;;;5040581;28;20116;-83
2023/10/14 02:51:52;;;;;;;1.58;0.20;;;10.10;99.90;;;;;;4967747;28;20050;-83
2023/10/14 02:54:27;;;;;;;2.25;0.93;;;10.10;99.90;;;;;;4968153;28;20043;-83
2023/10/14 02:59:35;;;;;;;;;;;10.00;99.90;;;;;;4968465;28;20055;-84
2023/10/14 03:09:49;;;;;;;0.55;0.35;;;10.40;99.90;;;;;;4968635;28;20054;-83
2023/10/14 03:12:18;;;;;;;0.35;0.30;;;10.40;99.90;;;;;;4966037;28;20134;-81
2023/10/14 03:14:56;;;;;;;1.08;0.22;;;10.50;99.90;;;;;;4969349;28;20527;-84
2023/10/14 03:17:25;;;;;;;4.68;0.47;;;10.50;99.90;;;;;;4967532;28;20482;-83
2023/10/14 03:19:55;;;;;;;5.70;0.85;;;10.60;99.90;;;;;;4968265;28;20046;-83
2023/10/14 03:22:26;;;;;;;2.65;0.47;;;10.60;99.90;;;;;;5004661;28;20095;-83
2023/10/14 03:24:52;;;;;;;1.70;0.30;;;10.60;99.90;;;;;;4984861;28;20035;-83
2023/10/14 03:27:19;;;;;;;2.38;0.85;;;10.60;99.90;;;;;;5054815;28;20536;-83
2023/10/14 03:29:54;;;;;;;4.00;0.20;;;10.60;99.90;;;;;;5055267;28;20389;-83
2023/10/14 03:32:28;;;;;;;0.20;0.20;;;10.60;99.90;;;;;;4988727;28;20039;-83
2023/10/14 03:34:54;;;;;;;3.22;0.63;;;10.50;99.90;;;;;;4987439;28;20045;-83
2023/10/14 03:37:25;;;;;;;0.45;0.30;;;10.50;99.90;;;;;;4987949;28;20038;-83
2023/10/14 03:40:36;;;;;;;2.38;0.38;;;10.50;99.90;;;;;;4987424;28;20042;-83
2023/10/14 03:42:51;;;;;;;3.00;0.68;;;10.40;99.90;;;;;;4987830;28;20043;-83
2023/10/14 03:45:20;;;;;;;;;;;10.30;99.90;;;;;;5055036;28;20510;-83
2023/10/14 03:47:51;;;;;;;0.60;0.43;;;10.20;99.90;;;;;;4987535;28;20277;-83
2023/10/14 03:50:23;;;;;;;1.75;0.70;;;10.20;99.90;;;;;;4984479;28;20039;-83
2023/10/14 03:52:51;;;;;;;2.55;0.50;;;10.20;99.90;;;;;;4967112;28;20070;-83
2023/10/14 03:55:24;;;;;;;7.10;0.60;;;10.20;99.90;;;;;;4967421;28;20054;-83
2023/10/14 03:57:52;;;;;;;9.68;1.05;;;10.20;99.90;;;;;;4967363;28;20469;-83
2023/10/14 04:00:36;;;;;;;7.28;0.90;;;10.20;99.90;;;;;;4969190;28;20458;-83
2023/10/14 04:03:11;;;;;;;7.57;0.45;;;10.20;99.90;;;;;;5053685;28;20053;-83
2023/10/14 04:05:45;;;;;;;3.53;0.47;;;10.20;99.90;;;;;;5054457;28;20073;-83
2023/10/14 04:08:13;;;;;;;2.28;0.70;;;10.20;99.90;;;;;;5053721;28;20125;-83
2023/10/14 04:10:43;;;;;;;4.88;0.65;;;10.10;99.90;;;;;;5054308;28;20054;-83
2023/10/14 04:13:13;;;;;;;4.05;1.20;;;10.10;99.90;;;;;;4986897;28;20054;-83
2023/10/14 04:15:52;;;;;;;2.80;0.32;;;10.10;99.90;;;;;;4985908;28;20060;-83
2023/10/14 04:18:24;;;;;;;2.65;0.85;;;10.10;99.90;;;;;;5051654;28;20536;-83
2023/10/14 04:21:13;;;;;;;6.10;0.80;;;10.10;99.90;;;;;;5035055;28;20640;-83
2023/10/14 04:23:59;;;;;;;2.50;0.40;;;10.20;99.90;;;;;;4980946;28;20039;-83
2023/10/14 04:26:24;;;;;;;0.45;0.30;;;10.30;99.90;;;;;;4968050;28;20050;-83
2023/10/14 04:28:59;;;;;;;7.20;0.70;;;10.20;99.90;;;;;;4967315;28;20043;-83
2023/10/14 04:31:39;;;;;;;5.32;1.15;;;10.20;99.90;;;;;;5049296;28;20054;-84
2023/10/14 04:34:10;;;;;;;;;;;10.20;99.90;;;;;;5054462;28;20078;-84
2023/10/14 04:36:36;;;;;;;2.40;0.90;;;10.10;99.90;;;;;;5053583;28;19971;-83
2023/10/14 04:39:15;;;;;;;3.00;0.40;;;10.10;99.90;;;;;;5054282;28;20047;-83
2023/10/14 04:44:37;;;;;;;8.27;0.93;;;10.20;99.90;;;;;;4985943;28;20090;-83
2023/10/14 04:47:04;;;;;;;3.47;0.52;;;10.30;99.90;;;;;;4986911;28;20058;-83
2023/10/14 04:49:37;;;;;;;2.35;0.40;;;10.30;99.90;;;;;;5015421;28;20690;-83
2023/10/14 04:52:06;;;;;;;4.65;0.30;;;10.30;99.90;;;;;;4965746;28;20074;-83
2023/10/14 04:54:36;;;;;;;1.67;0.77;;;10.40;99.90;;;;;;4966254;28;20121;-83
2023/10/14 04:57:24;;;;;;;5.10;0.77;;;10.30;99.90;;;;;;4965846;28;20074;-83
2023/10/14 04:59:53;;;;;;;4.63;0.50;;;10.30;99.90;;;;;;4965755;28;20055;-85
2023/10/14 05:02:24;;;;;;;2.05;0.30;;;10.20;99.90;;;;;;4965817;28;20058;-85
2023/10/14 05:04:51;;;;;;;2.72;0.38;;;10.20;99.90;;;;;;4965862;28;20256;-84
2023/10/14 05:07:19;;;;;;;5.90;1.08;;;10.20;99.90;;;;;;4969388;28;20042;-83
2023/10/14 05:10:08;;;;;;;2.65;0.32;;;10.10;99.90;;;;;;4969653;28;20042;-83
2023/10/14 05:12:40;;;;;;;2.65;0.80;;;10.00;99.90;;;;;;4968334;28;20555;-83
2023/10/14 05:15:19;;;;;;;9.00;1.60;;;10.10;99.90;;;;;;4982288;28;20712;-83
2023/10/14 05:17:49;;;;;;;5.20;0.77;;;10.10;99.90;;;;;;4988605;28;20168;-83
2023/10/14 05:23:19;;;;;;;6.25;0.60;;;10.10;99.90;;;;;;5034379;28;20054;-83
2023/10/14 05:25:56;;;;;;;3.60;0.60;;;10.10;99.90;;;;;;4988916;28;20118;-83
2023/10/14 05:28:31;;;;;;;3.63;0.68;;;10.10;99.90;;;;;;5037665;28;20700;-83
2023/10/14 05:31:08;;;;;;;1.20;0.90;;;10.20;99.90;;;;;;5036775;28;20111;-84
2023/10/14 05:33:37;;;;;;;0.85;0.20;;;10.10;99.90;;;;;;5036402;28;20047;-83
2023/10/14 05:36:06;;;;;;;1.83;0.35;;;10.10;99.90;;;;;;5038583;28;20046;-84
2023/10/14 05:38:32;;;;;;;11.68;0.80;;;10.20;99.90;;;;;;5040770;28;20063;-83
2023/10/14 05:40:59;;;;;;;3.60;0.77;;;10.30;99.90;;;;;;5041540;28;20046;-83
2023/10/14 05:43:26;;;;;;;6.18;0.47;;;10.30;99.90;;;;;;5056910;28;20505;-85
2023/10/14 05:45:52;;;;;;;3.05;0.60;;;10.20;99.90;;;;;;5055540;28;20598;-83
2023/10/14 05:48:19;;;;;;;4.22;0.40;;;10.20;99.90;;;;;;5056277;28;20050;-84
2023/10/14 05:50:44;;;;;;;7.45;1.00;;;10.20;99.90;;;;;;4968525;28;20047;-84
2023/10/14 05:53:11;;;;;;;4.38;0.47;;;10.20;99.90;;;;;;4969290;28;20284;-83
2023/10/14 05:55:39;;;;;;;2.05;0.30;;;10.10;99.90;;;;;;4970077;28;20054;-84
2023/10/14 05:58:07;;;;;;;5.15;0.52;;;10.00;99.90;;;;;;4968591;28;20491;-84
2023/10/14 06:00:34;;;;;;;5.53;0.77;;;10.00;99.90;;;;;;4969611;28;20656;-84
2023/10/14 06:03:00;;;;;;;3.97;0.30;;;9.90;99.90;;;;;;4968781;28;20705;-84
2023/10/14 06:05:31;;;;;;;4.93;1.23;;;9.80;99.90;;;;;;4968660;28;20072;-83
2023/10/14 06:08:00;;;;;;;2.90;0.50;;;9.80;99.90;;;;;;4967842;28;20058;-83
2023/10/14 06:10:29;;;;;;;7.47;1.45;;;9.80;99.90;;;;;;4960716;28;20121;-85
2023/10/14 06:12:58;;;;;;;1.20;0.35;;;9.70;99.90;;;;;;5039813;28;20108;-85
2023/10/14 06:15:25;;;;;;;2.25;0.82;;;9.70;99.90;;;;;;4988194;28;20458;-84
2023/10/14 06:17:54;;;;;;;5.38;0.95;;;9.70;99.90;;;;;;5055548;28;20447;-85
2023/10/14 06:20:21;;;;;;;5.00;0.32;;;9.70;99.90;;;;;;5055356;28;20115;-85
2023/10/14 06:22:47;;;;;;;4.68;0.65;;;9.60;99.90;;;;;;5054870;28;20524;-86
2023/10/14 06:25:16;;;;;;;0.30;0.30;;;9.70;99.90;;;;;;5056844;28;20205;-85
2023/10/14 06:27:46;;;;;;;5.45;0.45;;;9.60;99.90;;;;;;5056314;28;20039;-86
2023/10/14 06:30:19;;;;;;;5.07;0.57;;;9.60;99.90;;;;;;5055380;28;20053;-85
2023/10/14 06:32:53;;;;;;;2.33;0.77;;;9.60;99.90;;;;;;5056294;28;20395;-86
2023/10/14 06:35:20;;;;;;;2.10;0.90;;;9.70;99.90;;;;;;5055366;28;20054;-86
2023/10/14 06:37:48;;;;;;;4.80;0.57;;;9.70;99.90;;;;;;5055939;28;20043;-85
2023/10/14 06:40:18;;;;;;;7.18;1.35;;;9.70;99.90;;;;;;5056222;28;20082;-85
2023/10/14 06:42:48;;;;;;;5.97;0.73;;;9.70;99.90;;;;;;5055436;28;20121;-85
2023/10/14 06:45:21;;;;;;;0.47;0.22;;;9.80;99.90;;;;;;5056062;28;20511;-84
2023/10/14 06:47:51;;;;;;;4.18;1.55;;;9.80;99.90;;;;;;5055598;28;20072;-85
2023/10/14 06:50:23;;;;;;;3.55;0.65;;;9.80;99.90;;;;;;5038361;28;20038;-84
2023/10/14 06:52:58;;;;;;;8.88;0.85;;;9.90;99.90;;;;;;5056167;28;20054;-84
2023/10/14 06:55:28;;;;;;;1.40;0.55;;;10.00;99.90;;;;;;4989824;28;20284;-85
2023/10/14 06:57:57;;;;;;;3.78;0.60;;;10.10;99.90;;;;;;5055677;28;20042;-84
2023/10/14 07:00:29;;;;;;;6.15;0.95;;;10.20;99.90;;;;;;5055618;28;20052;-84
2023/10/14 07:02:57;;;;;;;0.20;0.20;;;10.30;99.90;;;;;;4988023;28;20050;-84
2023/10/14 07:05:23;;;;;;;5.38;0.88;;;10.50;99.90;;;;;;5055887;28;20052;-84
2023/10/14 07:07:49;;;;;;;8.38;0.98;;;10.50;99.90;;;;;;5054391;28;20050;-84
2023/10/14 07:10:16;;;;;;;4.50;0.57;;;10.60;99.90;;;;;;5054965;28;20556;-84
2023/10/14 07:12:42;;;;;;;2.78;0.80;;;10.70;99.90;;;;;;5055237;28;20501;-84
2023/10/14 07:15:13;;;;;;;3.05;0.57;;;10.80;99.90;;;;;;5055457;28;20034;-84
2023/10/14 07:17:43;;;;;;;3.15;1.10;;;11.00;99.90;;;;;;5054529;28;20054;-84
2023/10/14 07:20:11;;;;;;;1.05;0.20;;;11.00;99.90;;;;;;5055227;28;20487;-84
2023/10/14 07:22:42;;;;;;;0.20;0.20;;;11.10;99.90;;;;;;5054163;28;20542;-84
2023/10/14 07:25:11;;;;;;;5.80;1.33;;;11.20;99.90;;;;;;5054488;28;20109;-84
2023/10/14 07:27:40;;;;;;;7.70;1.40;;;11.20;99.90;;;;;;5054763;28;20038;-84
2023/10/14 07:30:16;;;;;;;3.33;0.40;;;11.30;99.90;;;;;;4991103;28;20046;-85
2023/10/14 07:32:43;;;;;;;5.65;0.93;;;11.40;99.90;;;;;;4987079;28;20035;-84
2023/10/14 07:35:14;;;;;;;7.45;0.52;;;11.40;99.90;;;;;;5054728;28;20081;-84
2023/10/14 07:37:45;;;;;;;0.40;0.25;;;11.50;99.90;;;;;;5054571;28;20121;-84
2023/10/14 07:40:22;;;;;;;4.95;0.52;;;11.60;99.90;;;;;;4987253;28;20042;-84
2023/10/14 07:42:52;;;;;;;7.05;0.65;;;11.70;99.90;;;;;;5054956;28;20107;-84
2023/10/14 07:45:21;;;;;;;5.03;0.45;;;11.80;99.90;;;;;;5053681;28;20052;-84
2023/10/14 07:47:48;;;;;;;6.50;0.53;;;11.90;99.90;;;;;;5055143;28;20053;-84
2023/10/14 07:50:13;;;;;;;1.95;0.20;;;12.00;99.90;;;;;;5055086;28;20133;-84
2023/10/14 07:52:39;;;;;;;6.25;1.10;;;12.10;99.90;;;;;;5054331;28;20131;-84
2023/10/14 07:55:10;;;;;;;3.72;0.50;;;12.20;99.90;;;;;;5054936;28;20042;-85
2023/10/14 07:57:40;;;;;;;3.50;0.98;;;12.30;99.90;;;;;;5054727;28;20034;-84
2023/10/14 08:00:12;;;;;;;3.50;0.60;;;12.40;99.90;;;;;;5054390;28;20492;-84
2023/10/14 08:02:42;;;;;;;1.30;0.38;;;12.60;99.90;;;;;;5054747;28;20065;-83
2023/10/14 08:05:08;;;;;;;;;;;12.80;99.90;;;;;;5054682;28;20481;-84
2023/10/14 08:07:40;;;;;;;4.38;0.65;;;13.10;99.90;;;;;;5049671;28;19917;-83
2023/10/14 08:10:17;;;;;;;5.00;0.40;;;13.50;99.90;;;;;;5054963;28;20046;-84
2023/10/14 08:12:46;;;;;;;1.65;0.50;;;13.90;99.90;;;;;;5054394;28;20084;-84
2023/10/14 08:15:14;;;;;;;4.95;0.40;;;14.30;99.90;;;;;;4987632;28;20507;-83
2023/10/14 08:17:41;;;;;;;5.13;0.65;;;14.80;99.90;;;;;;5055046;28;20043;-84
2023/10/14 08:20:12;;;;;;;1.40;0.75;;;15.00;99.90;;;;;;5053619;28;20034;-83
2023/10/14 08:22:46;;;;;;;4.78;0.77;;;15.00;99.90;;;;;;5053834;28;20482;-84
2023/10/14 08:25:12;;;;;;;3.03;0.80;;;15.00;99.90;;;;;;5052137;28;20047;-83
2023/10/14 08:27:40;;;;;;;2.10;0.50;;;15.00;99.90;;;;;;4985463;28;20042;-83
2023/10/14 08:30:12;;;;;;;4.50;1.10;;;15.20;99.90;;;;;;5054502;28;20050;-83
2023/10/14 08:32:42;;;;;;;2.28;0.50;;;15.40;99.90;;;;;;5054219;28;20050;-83
2023/10/14 08:35:17;;;;;;;2.80;0.57;;;15.70;99.90;;;;;;4986798;28;20509;-85
2023/10/14 08:37:52;;;;;;;1.75;0.40;;;15.90;99.90;;;;;;5054218;28;20047;-84
2023/10/14 08:40:20;;;;;;;1.08;0.30;;;16.00;99.90;;;;;;4988551;28;20049;-84
2023/10/14 08:42:57;;;;;;;3.10;0.50;;;16.30;99.90;;;;;;5037135;28;20042;-84
2023/10/14 08:45:26;;;;;;;3.00;0.30;;;16.50;99.90;;;;;;5038303;28;20399;-84
2023/10/14 08:47:54;;;;;;;2.72;0.50;;;16.80;99.90;;;;;;5037433;28;20104;-84
2023/10/14 08:50:24;;;;;;;2.90;0.38;;;17.10;99.90;;;;;;5037551;28;20105;-84
2023/10/14 08:52:51;;;;;;;;;;;17.20;99.90;;;;;;5038257;28;20125;-84
2023/10/14 08:55:19;;;;;;;2.38;0.10;;;17.50;99.90;;;;;;4970208;28;19918;-83
2023/10/14 08:57:46;;;;;;;2.78;0.63;;;17.70;99.90;;;;;;4970458;28;20521;-84
2023/10/14 09:00:23;;;;;;;1.90;0.63;;;17.70;99.90;;;;;;4970127;28;20042;-84
2023/10/14 09:02:51;;;;;;;4.38;1.02;;;17.80;99.90;;;;;;5036932;28;20046;-84
2023/10/14 09:05:17;;;;;;;2.53;0.60;;;17.90;99.90;;;;;;5053484;28;20038;-84
2023/10/14 09:07:51;;;;;;;2.58;0.52;;;17.90;99.90;;;;;;4989305;28;20491;-84
2023/10/14 09:10:19;;;;;;;3.50;0.55;;;18.10;99.90;;;;;;4989666;28;20042;-84
2023/10/14 09:12:57;;;;;;;3.28;0.75;;;18.10;99.90;;;;;;4989682;28;20042;-85
2023/10/14 09:15:36;;;;;;;2.85;0.40;;;18.10;99.90;;;;;;4990081;28;20086;-85
2023/10/14 09:18:02;;;;;;;4.20;0.55;;;18.00;99.90;;;;;;5056525;28;20482;-85
2023/10/14 09:20:30;;;;;;;2.13;0.30;;;18.20;99.90;;;;;;5056938;28;20049;-86
2023/10/14 09:23:34;;;;;;;3.78;0.40;;;18.50;99.90;;;;;;4988512;28;20047;-86
2023/10/14 09:26:02;;;;;;;1.92;0.30;;;19.00;99.90;;;;;;5057365;28;20443;-85
2023/10/14 09:28:35;;;;;;;1.42;0.47;;;19.30;99.90;;;;;;5056452;28;20548;-85
2023/10/14 09:31:07;;;;;;;2.60;0.45;;;19.30;99.90;;;;;;4988255;28;20382;-86
2023/10/14 09:33:35;;;;;;;2.88;0.38;;;18.90;99.90;;;;;;4990272;28;20042;-85
2023/10/14 09:36:04;;;;;;;3.17;0.28;;;18.00;99.90;;;;;;4990669;28;20193;-84
2023/10/14 09:38:34;;;;;;;1.58;0.57;;;17.90;99.90;;;;;;4989173;28;20038;-84
2023/10/14 09:41:04;;;;;;;3.78;0.73;;;18.10;99.90;;;;;;4989594;28;20508;-84
2023/10/14 09:43:32;;;;;;;1.95;0.65;;;17.90;99.90;;;;;;4989749;28;20117;-83
2023/10/14 09:46:03;;;;;;;4.05;0.57;;;18.00;99.90;;;;;;4992601;28;20102;-83
2023/10/14 09:48:34;;;;;;;1.27;0.50;;;18.60;99.90;;;;;;5056657;28;20054;-83
2023/10/14 09:51:01;;;;;;;0.80;0.47;;;19.30;99.90;;;;;;5058729;28;20110;-83
2023/10/14 09:53:33;;;;;;;0.65;0.20;;;19.70;99.90;;;;;;4990712;28;20053;-82
2023/10/14 09:56:05;;;;;;;2.85;0.70;;;19.80;99.90;;;;;;4989678;28;20090;-84
2023/10/14 09:58:34;;;;;;;3.30;0.32;;;19.30;99.90;;;;;;4988817;28;20045;-82
2023/10/14 10:01:17;;;;;;;3.95;0.70;;;18.90;99.90;;;;;;4989535;28;20039;-83
2023/10/14 10:03:55;;;;;;;2.45;0.55;;;19.40;99.90;;;;;;5056935;28;20430;-83
2023/10/14 10:06:55;;;;;;;0.70;0.40;;;19.90;99.90;;;;;;5055339;28;20050;-83
2023/10/14 10:09:57;;;;;;;1.38;0.35;;;20.50;99.90;;;;;;5056818;28;20126;-83
2023/10/14 10:12:25;;;;;;;3.22;0.80;;;20.40;99.90;;;;;;5056397;28;20486;-84
2023/10/14 10:15:01;;;;;;;4.32;0.30;;;20.50;99.90;;;;;;5056688;28;20038;-84
2023/10/14 10:17:27;;;;;;;3.65;1.13;;;20.90;99.90;;;;;;5056072;28;20088;-84
2023/10/14 10:20:19;;;;;;;1.98;0.30;;;21.10;99.90;;;;;;5056193;28;20084;-83
2023/10/14 10:22:51;;;;;;;1.02;0.60;;;20.80;96.30;;;;;;4988539;28;20062;-83
2023/10/14 10:25:50;;;;;;;0.60;0.10;;;19.30;92.50;;;;;;4989097;28;20043;-83
2023/10/14 10:28:27;;;;;;;1.83;0.22;;;18.00;96.00;;;;;;4989378;28;20053;-83
2023/10/14 10:31:03;;;;;;;2.22;0.30;;;18.20;98.80;;;;;;4989026;28;20114;-83
2023/10/14 10:33:52;;;;;;;0.65;0.00;;;18.70;99.70;;;;;;5055593;28;20046;-83
2023/10/14 10:36:29;;;;;;;1.10;0.20;;;19.30;99.80;;;;;;4988726;28;20038;-83
2023/10/14 10:39:05;;;;;;;1.67;0.20;;;19.60;95.50;;;;;;4988964;28;20038;-84
2023/10/14 10:41:36;;;;;;;0.98;0.40;;;19.20;95.10;;;;;;5055533;28;20559;-82
2023/10/14 10:44:05;;;;;;;1.27;0.08;;;18.90;96.30;;;;;;4988603;28;20042;-83
2023/10/14 10:46:46;;;;;;;2.57;0.30;;;18.70;97.30;;;;;;4988460;28;20379;-82
2023/10/14 10:49:14;;;;;;;4.13;0.85;;;18.30;95.10;;;;;;4988524;28;20432;-83
2023/10/14 10:51:52;;;;;;;2.83;0.35;;;18.10;96.40;;;;;;4989495;28;20591;-83
2023/10/14 10:54:22;;;;;;;2.58;0.30;;;18.10;95.20;;;;;;4989259;28;20042;-82
2023/10/14 10:56:48;;;;;;;2.08;0.35;;;18.10;96.10;;;;;;4989198;28;20042;-83
2023/10/14 10:59:14;;;;;;;2.00;0.47;;;18.10;96.00;;;;;;4988564;28;20078;-83
2023/10/14 11:01:40;;;;;;;2.42;0.50;;;18.20;94.90;;;;;;4987795;28;20113;-83
2023/10/14 11:04:12;;;;;;;3.88;0.85;;;18.00;93.70;;;;;;4988149;28;20454;-83
2023/10/14 11:06:38;;;;;;;3.30;0.30;;;17.50;95.40;;;;;;4985851;28;20034;-83
2023/10/14 11:09:05;;;;;;;3.20;0.63;;;17.00;95.90;;;;;;4968947;28;20043;-83
2023/10/14 11:11:33;;;;;;;1.45;0.20;;;16.50;96.60;;;;;;5036173;28;20122;-83
2023/10/14 11:14:02;;;;;;;0.50;0.20;;;16.50;97.30;;;;;;4968900;28;20449;-84
2023/10/14 11:16:29;;;;;;;1.90;0.47;;;16.50;96.90;;;;;;4968633;28;20038;-85
2023/10/14 11:18:57;;;;;;;0.80;0.40;;;17.00;96.10;;;;;;4968604;28;20479;-86
2023/10/14 11:21:27;;;;;;;2.30;0.52;;;17.40;96.50;;;;;;5019151;28;20050;-84
2023/10/14 11:23:54;;;;;;;3.55;0.38;;;18.00;96.40;;;;;;5043092;28;20050;-84
2023/10/14 11:26:20;;;;;;;2.58;0.40;;;18.20;96.90;;;;;;4983489;28;20497;-83
2023/10/14 11:28:48;;;;;;;1.83;0.40;;;18.30;96.10;;;;;;4985026;28;20088;-84
2023/10/14 11:31:14;;;;;;;1.40;0.35;;;18.10;96.80;;;;;;4985654;28;20046;-84
2023/10/14 11:33:47;;;;;;;2.88;0.35;;;18.00;96.00;;;;;;4983306;28;20096;-83
2023/10/14 11:36:18;;;;;;;2.28;0.50;;;17.90;94.40;;;;;;4981788;28;20680;-84
2023/10/14 11:38:46;;;;;;;0.95;0.28;;;17.90;93.80;;;;;;5048625;28;20077;-83
2023/10/14 11:41:15;;;;;;;0.98;0.25;;;17.70;92.90;;;;;;4982232;28;20038;-84
2023/10/14 11:43:45;;;;;;;2.78;0.35;;;17.60;94.70;;;;;;5050091;28;20486;-83
2023/10/14 11:46:11;;;;;;;4.03;0.45;;;17.60;95.00;;;;;;4967433;28;20054;-83
2023/10/14 11:48:38;;;;;;;6.80;0.30;;;17.30;93.60;;;;;;4965704;28;20483;-83
2023/10/14 11:51:11;;;;;;;5.70;0.63;;;16.80;94.90;;;;;;4964806;28;20483;-83
2023/10/14 11:53:45;;;;;;;1.08;0.35;;;16.40;95.10;;;;;;4964838;28;20521;-83
2023/10/14 11:56:13;;;;;;;2.97;0.38;;;16.40;97.50;;;;;;4964050;28;20306;-83
2023/10/14 11:58:40;;;;;;;1.60;0.60;;;16.70;99.90;;;;;;4963678;28;20035;-83
2023/10/14 12:01:07;;;;;;;2.08;0.28;;;16.50;99.80;;;;;;4964222;28;20469;-83
2023/10/14 12:03:33;;;;;;;1.58;0.30;;;16.40;99.90;;;;;;4964528;28;20129;-84
2023/10/14 12:05:59;;;;;;;2.17;0.50;;;16.40;99.90;;;;;;4963175;28;20122;-82
2023/10/14 12:08:36;;;;;;;1.75;0.40;;;16.10;99.70;;;;;;4964668;28;20140;-83
2023/10/14 12:11:03;;;;;;;0.90;0.52;;;16.10;99.90;;;;;;4964178;28;20043;-83
2023/10/14 12:13:30;;;;;;;4.30;0.45;;;15.80;99.50;;;;;;4966338;28;20494;-83
2023/10/14 12:15:57;;;;;;;0.52;0.20;;;15.40;99.50;;;;;;4965501;28;20047;-83
2023/10/14 12:18:22;;;;;;;2.83;0.40;;;15.00;98.90;;;;;;4962255;28;20086;-83
2023/10/14 12:20:49;;;;;;;5.22;0.30;;;14.50;97.90;;;;;;4965076;28;20093;-82
2023/10/14 12:23:21;;;;;;;5.13;0.30;;;14.20;98.70;;;;;;4962672;28;20039;-83
2023/10/14 12:25:48;;;;;;;4.18;0.60;;;14.10;99.50;;;;;;4962939;28;20035;-86
2023/10/14 12:28:25;;;;;;;3.63;0.68;;;14.10;99.50;;;;;;4963400;28;21591;-86
2023/10/14 12:30:52;;;;;;;2.67;0.50;;;14.00;99.90;;;;;;4963316;28;20101;-83
2023/10/14 12:33:20;;;;;;;1.15;0.35;;;14.30;99.90;;;;;;4964024;28;20042;-84
2023/10/14 12:35:51;;;;;;;1.10;0.40;;;14.80;99.80;;;;;;4963570;28;20038;-84
2023/10/14 12:38:20;;;;;;;0.35;0.28;;;14.80;99.00;;;;;;4961909;28;20314;-84
2023/10/14 12:40:49;;;;;;;4.80;0.57;;;15.00;99.90;;;;;;4964497;28;20437;-84
2023/10/14 12:43:16;;;;;;;3.30;0.50;;;15.40;98.80;;;;;;4964252;28;20298;-83
2023/10/14 12:45:49;;;;;;;4.25;0.80;;;15.60;98.20;;;;;;4978847;28;20418;-85
2023/10/14 12:48:16;;;;;;;3.47;0.30;;;15.60;97.90;;;;;;4983154;28;20107;-83
2023/10/14 12:50:41;;;;;;;1.35;0.60;;;15.40;97.70;;;;;;4983670;28;20561;-84
2023/10/14 12:53:10;;;;;;;5.40;0.77;;;15.00;98.10;;;;;;4982430;28;20462;-84
2023/10/14 12:55:38;;;;;;;3.03;0.40;;;14.80;99.10;;;;;;4983088;28;20099;-83
2023/10/14 12:58:04;;;;;;;1.15;0.40;;;14.60;99.50;;;;;;4983280;28;20451;-84
2023/10/14 13:00:31;;;;;;;0.88;0.30;;;14.40;99.50;;;;;;4983109;28;20030;-82
2023/10/14 13:02:57;;;;;;;1.83;0.30;;;14.30;99.80;;;;;;4984103;28;20042;-84
2023/10/14 13:05:25;;;;;;;7.28;1.15;;;14.30;99.90;;;;;;4984415;28;20062;-83
2023/10/14 13:07:53;;;;;;;2.88;0.95;;;14.20;99.90;;;;;;4983328;28;20053;-84
2023/10/14 13:10:20;;;;;;;4.43;0.60;;;14.20;99.90;;;;;;4983829;28;20082;-85
2023/10/14 13:12:49;;;;;;;2.38;0.20;;;14.10;99.90;;;;;;4984254;28;20110;-83
2023/10/14 13:15:25;;;;;;;5.60;0.57;;;14.00;99.90;;;;;;4983736;28;20161;-84
2023/10/14 13:17:56;;;;;;;1.65;0.73;;;13.90;99.90;;;;;;5049856;28;20714;-85
2023/10/14 13:20:26;;;;;;;1.90;0.43;;;13.90;99.90;;;;;;5050767;28;20066;-84
2023/10/14 13:22:58;;;;;;;2.50;0.63;;;13.90;99.70;;;;;;4982362;28;20038;-83
2023/10/14 13:25:24;;;;;;;3.55;0.77;;;13.90;99.90;;;;;;4983415;28;20034;-83
2023/10/14 13:27:51;;;;;;;2.33;0.85;;;13.90;98.70;;;;;;5054099;28;20064;-83
2023/10/14 13:30:24;;;;;;;1.02;0.40;;;13.80;99.10;;;;;;4986740;28;20054;-85